sensor_id;sensor_type;location;lat;lon;timestamp;pressure;altitude;pressure_sealevel;temperature;humidity
36834;BME280;48003;52.084;5.224;2023-03-03T00:00:55;102578.0;;;5.99;70.81
36834;BME280;48003;52.084;5.224;2023-03-03T00:02:31;102579.0;;;5.98;70.8
36834;BME280;48003;52.084;5.224;2023-03-03T00:04:07;102580.0;;;5.99;70.69
36834;BME280;48003;52.084;5.224;2023-03-03T00:07:20;102577.0;;;5.99;70.56
36834;BME280;48003;52.084;5.224;2023-03-03T00:08:56;102583.0;;;5.96;70.61
36834;BME280;48003;52.084;5.224;2023-03-03T00:10:32;102581.0;;;5.91;70.77
36834;BME280;48003;52.084;5.224;2023-03-03T00:13:57;102578.0;;;5.9;70.83
36834;BME280;48003;52.084;5.224;2023-03-03T00:15:35;102580.0;;;5.92;70.83
36834;BME280;48003;52.084;5.224;2023-03-03T00:17:16;102581.0;;;5.91;70.92
36834;BME280;48003;52.084;5.224;2023-03-03T00:18:56;102584.99999999999;;;5.87;70.99
36834;BME280;48003;52.084;5.224;2023-03-03T00:22:16;102589.00000000001;;;5.85;71.19
36834;BME280;48003;52.084;5.224;2023-03-03T00:24:16;102590.00000000001;;;5.81;71.31
36834;BME280;48003;52.084;5.224;2023-03-03T00:25:54;102588.00000000001;;;5.77;71.52
36834;BME280;48003;52.084;5.224;2023-03-03T00:27:34;102588.00000000001;;;5.8;71.58
36834;BME280;48003;52.084;5.224;2023-03-03T00:29:26;102586.99999999999;;;5.79;71.69
36834;BME280;48003;52.084;5.224;2023-03-03T00:32:52;102592.0;;;5.75;71.75
36834;BME280;48003;52.084;5.224;2023-03-03T00:34:29;102592.0;;;5.75;71.7
36834;BME280;48003;52.084;5.224;2023-03-03T00:36:21;102597.0;;;5.72;71.95
36834;BME280;48003;52.084;5.224;2023-03-03T00:38:15;102594.0;;;5.72;72.09
36834;BME280;48003;52.084;5.224;2023-03-03T00:39:52;102596.0;;;5.66;72.25
36834;BME280;48003;52.084;5.224;2023-03-03T00:43:14;102595.0;;;5.61;72.55
36834;BME280;48003;52.084;5.224;2023-03-03T00:44:55;102593.0;;;5.62;72.64
36834;BME280;48003;52.084;5.224;2023-03-03T00:46:35;102597.0;;;5.66;72.59
36834;BME280;48003;52.084;5.224;2023-03-03T00:48:20;102598.0;;;5.64;72.72
36834;BME280;48003;52.084;5.224;2023-03-03T00:52:00;102599.0;;;5.68;72.58
36834;BME280;48003;52.084;5.224;2023-03-03T00:53:36;102599.0;;;5.68;72.5
36834;BME280;48003;52.084;5.224;2023-03-03T00:55:12;102599.0;;;5.66;72.48
36834;BME280;48003;52.084;5.224;2023-03-03T00:56:48;102599.0;;;5.67;72.45
36834;BME280;48003;52.084;5.224;2023-03-03T00:58:25;102605.0;;;5.64;72.53
36834;BME280;48003;52.084;5.224;2023-03-03T01:01:40;102604.0;;;5.66;72.45
36834;BME280;48003;52.084;5.224;2023-03-03T01:03:19;102607.0;;;5.65;72.52
36834;BME280;48003;52.084;5.224;2023-03-03T01:04:55;102613.00000000001;;;5.62;72.67
36834;BME280;48003;52.084;5.224;2023-03-03T01:08:08;102605.0;;;5.65;72.63
36834;BME280;48003;52.084;5.224;2023-03-03T01:09:44;102604.0;;;5.62;72.72
36834;BME280;48003;52.084;5.224;2023-03-03T01:11:22;102611.99999999999;;;5.67;72.69
36834;BME280;48003;52.084;5.224;2023-03-03T01:14:38;102606.0;;;5.62;72.69
36834;BME280;48003;52.084;5.224;2023-03-03T01:16:15;102617.0;;;5.59;72.84
36834;BME280;48003;52.084;5.224;2023-03-03T01:17:53;102613.00000000001;;;5.61;72.89
36834;BME280;48003;52.084;5.224;2023-03-03T01:19:29;102614.00000000001;;;5.66;72.75
36834;BME280;48003;52.084;5.224;2023-03-03T01:22:42;102606.0;;;5.64;72.77
36834;BME280;48003;52.084;5.224;2023-03-03T01:24:19;102607.0;;;5.68;72.64
36834;BME280;48003;52.084;5.224;2023-03-03T01:25:56;102604.0;;;5.71;72.45
36834;BME280;48003;52.084;5.224;2023-03-03T01:29:10;102606.0;;;5.62;72.64
36834;BME280;48003;52.084;5.224;2023-03-03T01:30:46;102608.99999999999;;;5.68;72.48
36834;BME280;48003;52.084;5.224;2023-03-03T01:32:22;102609.99999999999;;;5.62;72.62
36834;BME280;48003;52.084;5.224;2023-03-03T01:33:58;102619.0;;;5.55;72.8
36834;BME280;48003;52.084;5.224;2023-03-03T01:37:11;102617.0;;;5.56;72.86
36834;BME280;48003;52.084;5.224;2023-03-03T01:38:48;102620.0;;;5.54;72.8
36834;BME280;48003;52.084;5.224;2023-03-03T01:40:25;102617.0;;;5.51;72.7
36834;BME280;48003;52.084;5.224;2023-03-03T01:43:43;102620.0;;;5.41;72.74
36834;BME280;48003;52.084;5.224;2023-03-03T01:45:22;102623.0;;;5.43;72.66
36834;BME280;48003;52.084;5.224;2023-03-03T01:47:03;102629.0;;;5.37;72.8
36834;BME280;48003;52.084;5.224;2023-03-03T01:48:43;102626.0;;;5.36;72.72
36834;BME280;48003;52.084;5.224;2023-03-03T01:52:12;102631.0;;;5.37;72.7
36834;BME280;48003;52.084;5.224;2023-03-03T01:53:52;102629.0;;;5.31;72.95
36834;BME280;48003;52.084;5.224;2023-03-03T01:55:34;102633.99999999999;;;5.3;73.08
36834;BME280;48003;52.084;5.224;2023-03-03T01:57:14;102625.0;;;5.3;73.11
36834;BME280;48003;52.084;5.224;2023-03-03T02:00:38;102626.0;;;5.32;73.16
36834;BME280;48003;52.084;5.224;2023-03-03T02:02:16;102629.0;;;5.32;73.08
36834;BME280;48003;52.084;5.224;2023-03-03T02:03:52;102628.0;;;5.3;73.13
36834;BME280;48003;52.084;5.224;2023-03-03T02:05:28;102627.0;;;5.35;73.09
36834;BME280;48003;52.084;5.224;2023-03-03T02:08:50;102622.0;;;5.35;72.97
36834;BME280;48003;52.084;5.224;2023-03-03T02:10:29;102625.0;;;5.41;72.97
36834;BME280;48003;52.084;5.224;2023-03-03T02:12:08;102627.0;;;5.37;72.98
36834;BME280;48003;52.084;5.224;2023-03-03T02:13:47;102626.0;;;5.4;72.91
36834;BME280;48003;52.084;5.224;2023-03-03T02:17:02;102626.0;;;5.39;72.92
36834;BME280;48003;52.084;5.224;2023-03-03T02:18:38;102624.0;;;5.38;72.94
36834;BME280;48003;52.084;5.224;2023-03-03T02:20:19;102627.0;;;5.42;72.77
36834;BME280;48003;52.084;5.224;2023-03-03T02:23:42;102625.0;;;5.45;72.55
36834;BME280;48003;52.084;5.224;2023-03-03T02:25:28;102624.0;;;5.41;72.62
36834;BME280;48003;52.084;5.224;2023-03-03T02:27:09;102624.0;;;5.41;72.66
36834;BME280;48003;52.084;5.224;2023-03-03T02:28:45;102621.0;;;5.38;72.7
36834;BME280;48003;52.084;5.224;2023-03-03T02:32:00;102622.0;;;5.37;72.81
36834;BME280;48003;52.084;5.224;2023-03-03T02:33:38;102626.0;;;5.35;72.88
36834;BME280;48003;52.084;5.224;2023-03-03T02:35:32;102623.0;;;5.37;72.84
36834;BME280;48003;52.084;5.224;2023-03-03T02:37:10;102620.0;;;5.31;73.09
36834;BME280;48003;52.084;5.224;2023-03-03T02:40:33;102625.0;;;5.29;73.27
36834;BME280;48003;52.084;5.224;2023-03-03T02:42:15;102617.0;;;5.27;73.38
36834;BME280;48003;52.084;5.224;2023-03-03T02:43:58;102622.0;;;5.28;73.41
36834;BME280;48003;52.084;5.224;2023-03-03T02:45:41;102624.0;;;5.3;73.45
36834;BME280;48003;52.084;5.224;2023-03-03T02:47:17;102618.0;;;5.32;73.55
36834;BME280;48003;52.084;5.224;2023-03-03T02:50:30;102626.0;;;5.3;73.64
36834;BME280;48003;52.084;5.224;2023-03-03T02:52:07;102624.0;;;5.34;73.72
36834;BME280;48003;52.084;5.224;2023-03-03T02:53:45;102627.0;;;5.38;73.63
36834;BME280;48003;52.084;5.224;2023-03-03T02:56:59;102623.0;;;5.41;73.44
36834;BME280;48003;52.084;5.224;2023-03-03T02:58:36;102627.0;;;5.36;73.47
36834;BME280;48003;52.084;5.224;2023-03-03T03:00:13;102625.0;;;5.41;73.27
36834;BME280;48003;52.084;5.224;2023-03-03T03:01:50;102629.0;;;5.37;73.33
36834;BME280;48003;52.084;5.224;2023-03-03T03:05:03;102631.0;;;5.35;73.39
36834;BME280;48003;52.084;5.224;2023-03-03T03:06:41;102630.0;;;5.34;73.41
36834;BME280;48003;52.084;5.224;2023-03-03T03:08:17;102626.0;;;5.31;73.41
36834;BME280;48003;52.084;5.224;2023-03-03T03:11:30;102624.0;;;5.32;73.48
36834;BME280;48003;52.084;5.224;2023-03-03T03:13:06;102625.0;;;5.28;73.42
36834;BME280;48003;52.084;5.224;2023-03-03T03:14:42;102627.0;;;5.28;73.24
36834;BME280;48003;52.084;5.224;2023-03-03T03:17:54;102627.0;;;5.27;73.33
36834;BME280;48003;52.084;5.224;2023-03-03T03:19:30;102624.0;;;5.23;73.33
36834;BME280;48003;52.084;5.224;2023-03-03T03:21:08;102628.0;;;5.15;73.3
36834;BME280;48003;52.084;5.224;2023-03-03T03:22:45;102626.0;;;5.15;73.47
36834;BME280;48003;52.084;5.224;2023-03-03T03:25:58;102630.0;;;5.07;73.66
36834;BME280;48003;52.084;5.224;2023-03-03T03:27:34;102624.0;;;5.07;73.66
36834;BME280;48003;52.084;5.224;2023-03-03T03:29:10;102627.0;;;5.07;73.75
36834;BME280;48003;52.084;5.224;2023-03-03T03:32:22;102623.0;;;5.07;73.89
36834;BME280;48003;52.084;5.224;2023-03-03T03:33:57;102623.0;;;5.08;73.92
36834;BME280;48003;52.084;5.224;2023-03-03T03:35:34;102627.0;;;5.08;73.94
36834;BME280;48003;52.084;5.224;2023-03-03T03:38:47;102626.0;;;5.04;74.19
36834;BME280;48003;52.084;5.224;2023-03-03T03:40:23;102627.0;;;5.07;74.14
36834;BME280;48003;52.084;5.224;2023-03-03T03:41:59;102632.0;;;5.05;74.42
36834;BME280;48003;52.084;5.224;2023-03-03T03:45:12;102631.0;;;5.05;74.3
36834;BME280;48003;52.084;5.224;2023-03-03T03:46:48;102632.0;;;5.08;74.36
36834;BME280;48003;52.084;5.224;2023-03-03T03:48:25;102628.0;;;5.11;74.25
36834;BME280;48003;52.084;5.224;2023-03-03T03:50:02;102630.0;;;5.13;74.27
36834;BME280;48003;52.084;5.224;2023-03-03T03:53:15;102634.99999999999;;;5.14;74.37
36834;BME280;48003;52.084;5.224;2023-03-03T03:54:51;102634.99999999999;;;5.19;74.3
36834;BME280;48003;52.084;5.224;2023-03-03T03:56:27;102641.00000000001;;;5.16;74.12
36834;BME280;48003;52.084;5.224;2023-03-03T03:59:40;102634.99999999999;;;5.17;74.08
36834;BME280;48003;52.084;5.224;2023-03-03T04:01:17;102639.00000000001;;;5.15;74.23
36834;BME280;48003;52.084;5.224;2023-03-03T04:02:53;102640.00000000001;;;5.12;74.45
36834;BME280;48003;52.084;5.224;2023-03-03T04:06:05;102642.0;;;5.15;74.38
36834;BME280;48003;52.084;5.224;2023-03-03T04:07:41;102644.0;;;5.15;74.3
36834;BME280;48003;52.084;5.224;2023-03-03T04:09:17;102639.00000000001;;;5.15;74.39
36834;BME280;48003;52.084;5.224;2023-03-03T04:10:54;102642.0;;;5.18;74.42
36834;BME280;48003;52.084;5.224;2023-03-03T04:14:07;102640.00000000001;;;5.14;74.66
36834;BME280;48003;52.084;5.224;2023-03-03T04:15:43;102647.0;;;5.18;74.49
36834;BME280;48003;52.084;5.224;2023-03-03T04:17:21;102644.0;;;5.21;74.52
36834;BME280;48003;52.084;5.224;2023-03-03T04:20:33;102642.0;;;5.21;74.63
36834;BME280;48003;52.084;5.224;2023-03-03T04:22:10;102642.0;;;5.22;74.7
36834;BME280;48003;52.084;5.224;2023-03-03T04:23:46;102640.00000000001;;;5.26;74.66
36834;BME280;48003;52.084;5.224;2023-03-03T04:26:59;102641.00000000001;;;5.27;74.62
36834;BME280;48003;52.084;5.224;2023-03-03T04:28:35;102639.00000000001;;;5.24;74.86
36834;BME280;48003;52.084;5.224;2023-03-03T04:30:13;102642.0;;;5.27;74.86
36834;BME280;48003;52.084;5.224;2023-03-03T04:31:50;102640.00000000001;;;5.3;74.83
36834;BME280;48003;52.084;5.224;2023-03-03T04:35:04;102641.00000000001;;;5.31;74.91
36834;BME280;48003;52.084;5.224;2023-03-03T04:36:41;102647.0;;;5.36;74.83
36834;BME280;48003;52.084;5.224;2023-03-03T04:38:17;102644.0;;;5.34;74.99
36834;BME280;48003;52.084;5.224;2023-03-03T04:41:29;102646.0;;;5.33;75.09
36834;BME280;48003;52.084;5.224;2023-03-03T04:43:05;102650.0;;;5.36;75.12
36834;BME280;48003;52.084;5.224;2023-03-03T04:44:41;102653.0;;;5.37;75.22
36834;BME280;48003;52.084;5.224;2023-03-03T04:47:54;102652.0;;;5.36;75.22
36834;BME280;48003;52.084;5.224;2023-03-03T04:49:31;102649.0;;;5.44;75.13
36834;BME280;48003;52.084;5.224;2023-03-03T04:51:07;102645.0;;;5.44;75.14
36834;BME280;48003;52.084;5.224;2023-03-03T04:52:43;102649.0;;;5.42;75.13
36834;BME280;48003;52.084;5.224;2023-03-03T04:55:55;102651.0;;;5.37;75.27
36834;BME280;48003;52.084;5.224;2023-03-03T04:57:31;102647.0;;;5.37;75.33
36834;BME280;48003;52.084;5.224;2023-03-03T04:59:06;102650.0;;;5.38;75.42
36834;BME280;48003;52.084;5.224;2023-03-03T05:02:19;102652.0;;;5.39;75.44
36834;BME280;48003;52.084;5.224;2023-03-03T05:03:55;102651.0;;;5.42;75.42
36834;BME280;48003;52.084;5.224;2023-03-03T05:05:31;102655.0;;;5.4;75.49
36834;BME280;48003;52.084;5.224;2023-03-03T05:08:43;102652.0;;;5.39;75.66
36834;BME280;48003;52.084;5.224;2023-03-03T05:10:19;102648.0;;;5.4;75.78
36834;BME280;48003;52.084;5.224;2023-03-03T05:11:55;102652.0;;;5.39;75.83
36834;BME280;48003;52.084;5.224;2023-03-03T05:15:09;102649.0;;;5.32;76.16
36834;BME280;48003;52.084;5.224;2023-03-03T05:16:47;102645.0;;;5.35;76.12
36834;BME280;48003;52.084;5.224;2023-03-03T05:18:24;102644.0;;;5.34;76.28
36834;BME280;48003;52.084;5.224;2023-03-03T05:20:01;102645.0;;;5.34;76.41
36834;BME280;48003;52.084;5.224;2023-03-03T05:23:14;102646.0;;;5.39;76.33
36834;BME280;48003;52.084;5.224;2023-03-03T05:24:52;102650.0;;;5.39;76.33
36834;BME280;48003;52.084;5.224;2023-03-03T05:26:28;102650.0;;;5.39;76.44
36834;BME280;48003;52.084;5.224;2023-03-03T05:29:40;102648.0;;;5.41;76.45
36834;BME280;48003;52.084;5.224;2023-03-03T05:31:16;102643.0;;;5.45;76.47
36834;BME280;48003;52.084;5.224;2023-03-03T05:32:52;102645.0;;;5.45;76.52
36834;BME280;48003;52.084;5.224;2023-03-03T05:36:05;102640.00000000001;;;5.47;76.44
36834;BME280;48003;52.084;5.224;2023-03-03T05:37:42;102642.0;;;5.47;76.53
36834;BME280;48003;52.084;5.224;2023-03-03T05:39:18;102643.0;;;5.47;76.69
36834;BME280;48003;52.084;5.224;2023-03-03T05:40:54;102646.0;;;5.46;76.74
36834;BME280;48003;52.084;5.224;2023-03-03T05:44:06;102644.0;;;5.47;76.83
36834;BME280;48003;52.084;5.224;2023-03-03T05:45:43;102648.0;;;5.52;76.8
36834;BME280;48003;52.084;5.224;2023-03-03T05:47:19;102655.0;;;5.52;76.91
36834;BME280;48003;52.084;5.224;2023-03-03T05:50:32;102651.0;;;5.53;76.95
36834;BME280;48003;52.084;5.224;2023-03-03T05:52:08;102654.0;;;5.55;77.06
36834;BME280;48003;52.084;5.224;2023-03-03T05:53:44;102650.0;;;5.61;76.91
36834;BME280;48003;52.084;5.224;2023-03-03T05:56:56;102650.0;;;5.64;76.77
36834;BME280;48003;52.084;5.224;2023-03-03T05:58:32;102649.0;;;5.64;76.84
36834;BME280;48003;52.084;5.224;2023-03-03T06:00:10;102650.0;;;5.63;76.98
36834;BME280;48003;52.084;5.224;2023-03-03T06:01:46;102653.0;;;5.6;77.05
36834;BME280;48003;52.084;5.224;2023-03-03T06:04:59;102654.0;;;5.59;77.16
36834;BME280;48003;52.084;5.224;2023-03-03T06:06:35;102655.0;;;5.62;77.2
36834;BME280;48003;52.084;5.224;2023-03-03T06:08:11;102656.0;;;5.59;77.3
36834;BME280;48003;52.084;5.224;2023-03-03T06:11:23;102651.0;;;5.61;77.41
36834;BME280;48003;52.084;5.224;2023-03-03T06:12:59;102658.0;;;5.58;77.61
36834;BME280;48003;52.084;5.224;2023-03-03T06:14:36;102658.99999999999;;;5.59;77.67
36834;BME280;48003;52.084;5.224;2023-03-03T06:17:48;102658.99999999999;;;5.58;77.8
36834;BME280;48003;52.084;5.224;2023-03-03T06:19:24;102665.00000000001;;;5.6;77.91
36834;BME280;48003;52.084;5.224;2023-03-03T06:21:01;102665.00000000001;;;5.56;78.11
36834;BME280;48003;52.084;5.224;2023-03-03T06:24:13;102669.0;;;5.54;78.3
36834;BME280;48003;52.084;5.224;2023-03-03T06:25:49;102671.0;;;5.53;78.45
36834;BME280;48003;52.084;5.224;2023-03-03T06:27:25;102673.0;;;5.58;78.36
36834;BME280;48003;52.084;5.224;2023-03-03T06:29:02;102674.0;;;5.63;78.37
36834;BME280;48003;52.084;5.224;2023-03-03T06:32:15;102676.0;;;5.66;78.3
36834;BME280;48003;52.084;5.224;2023-03-03T06:33:51;102675.0;;;5.64;78.3
36834;BME280;48003;52.084;5.224;2023-03-03T06:35:28;102675.0;;;5.64;78.44
36834;BME280;48003;52.084;5.224;2023-03-03T06:38:41;102675.0;;;5.62;78.64
36834;BME280;48003;52.084;5.224;2023-03-03T06:40:18;102676.0;;;5.66;78.62
36834;BME280;48003;52.084;5.224;2023-03-03T06:41:54;102676.0;;;5.66;78.63
36834;BME280;48003;52.084;5.224;2023-03-03T06:45:07;102679.0;;;5.64;78.69
36834;BME280;48003;52.084;5.224;2023-03-03T06:46:43;102682.0;;;5.64;78.73
36834;BME280;48003;52.084;5.224;2023-03-03T06:48:19;102680.0;;;5.67;78.8
36834;BME280;48003;52.084;5.224;2023-03-03T06:49:55;102689.00000000001;;;5.71;78.74
36834;BME280;48003;52.084;5.224;2023-03-03T06:53:12;102691.00000000001;;;5.69;78.69
36834;BME280;48003;52.084;5.224;2023-03-03T06:54:52;102694.0;;;5.72;78.64
36834;BME280;48003;52.084;5.224;2023-03-03T06:56:33;102693.0;;;5.72;78.72
36834;BME280;48003;52.084;5.224;2023-03-03T06:59:52;102698.0;;;5.74;78.58
36834;BME280;48003;52.084;5.224;2023-03-03T07:01:33;102698.0;;;5.77;78.55
36834;BME280;48003;52.084;5.224;2023-03-03T07:03:14;102701.0;;;5.76;78.69
36834;BME280;48003;52.084;5.224;2023-03-03T07:04:52;102704.0;;;5.81;78.47
36834;BME280;48003;52.084;5.224;2023-03-03T07:08:13;102702.0;;;5.8;78.69
36834;BME280;48003;52.084;5.224;2023-03-03T07:09:52;102706.0;;;5.79;78.69
36834;BME280;48003;52.084;5.224;2023-03-03T07:11:29;102715.00000000001;;;5.81;78.72
36834;BME280;48003;52.084;5.224;2023-03-03T07:13:17;102716.00000000001;;;5.81;78.66
36834;BME280;48003;52.084;5.224;2023-03-03T07:16:51;102717.0;;;5.78;78.86
36834;BME280;48003;52.084;5.224;2023-03-03T07:18:34;102719.0;;;5.82;78.8
36834;BME280;48003;52.084;5.224;2023-03-03T07:20:17;102719.0;;;5.8;78.83
36834;BME280;48003;52.084;5.224;2023-03-03T07:21:55;102723.0;;;5.82;78.99
36834;BME280;48003;52.084;5.224;2023-03-03T07:23:36;102724.0;;;5.84;78.74
36834;BME280;48003;52.084;5.224;2023-03-03T07:27:10;102722.0;;;5.9;78.73
36834;BME280;48003;52.084;5.224;2023-03-03T07:28:52;102725.0;;;5.89;78.87
36834;BME280;48003;52.084;5.224;2023-03-03T07:30:29;102724.0;;;5.93;78.8
36834;BME280;48003;52.084;5.224;2023-03-03T07:32:15;102724.0;;;5.92;78.97
36834;BME280;48003;52.084;5.224;2023-03-03T07:33:59;102726.0;;;5.96;78.94
36834;BME280;48003;52.084;5.224;2023-03-03T07:37:16;102726.0;;;5.97;78.94
36834;BME280;48003;52.084;5.224;2023-03-03T07:39:25;102727.0;;;6.01;78.97
36834;BME280;48003;52.084;5.224;2023-03-03T07:41:07;102728.0;;;6.01;79.02
36834;BME280;48003;52.084;5.224;2023-03-03T07:42:47;102731.0;;;6.09;78.88
36834;BME280;48003;52.084;5.224;2023-03-03T07:44:27;102733.99999999999;;;6.09;78.66
36834;BME280;48003;52.084;5.224;2023-03-03T07:48:06;102733.99999999999;;;6.18;78.5
36834;BME280;48003;52.084;5.224;2023-03-03T07:49:56;102740.00000000001;;;6.15;78.33
36834;BME280;48003;52.084;5.224;2023-03-03T07:51:37;102742.0;;;6.12;78.56
36834;BME280;48003;52.084;5.224;2023-03-03T07:53:21;102745.0;;;6.15;78.61
36834;BME280;48003;52.084;5.224;2023-03-03T07:57:16;102749.0;;;6.2;78.56
36834;BME280;48003;52.084;5.224;2023-03-03T07:58:57;102756.0;;;6.23;78.59
36834;BME280;48003;52.084;5.224;2023-03-03T08:03:17;102758.99999999999;;;6.27;78.27
36834;BME280;48003;52.084;5.224;2023-03-03T08:06:36;102761.99999999999;;;6.3;78.27
36834;BME280;48003;52.084;5.224;2023-03-03T08:08:27;102766.00000000001;;;6.3;78.3
36834;BME280;48003;52.084;5.224;2023-03-03T08:10:27;102763.00000000001;;;6.3;78.22
36834;BME280;48003;52.084;5.224;2023-03-03T08:12:22;102766.00000000001;;;6.4;78.19
36834;BME280;48003;52.084;5.224;2023-03-03T08:14:14;102767.0;;;6.39;78.14
36834;BME280;48003;52.084;5.224;2023-03-03T08:15:57;102771.0;;;6.38;78.03
36834;BME280;48003;52.084;5.224;2023-03-03T08:19:16;102770.0;;;6.37;78.25
36834;BME280;48003;52.084;5.224;2023-03-03T08:20:55;102770.0;;;6.37;78.36
36834;BME280;48003;52.084;5.224;2023-03-03T08:22:34;102778.0;;;6.38;78.31
36834;BME280;48003;52.084;5.224;2023-03-03T08:24:10;102778.0;;;6.39;78.37
36834;BME280;48003;52.084;5.224;2023-03-03T08:27:24;102781.0;;;6.43;78.48
36834;BME280;48003;52.084;5.224;2023-03-03T08:29:01;102782.0;;;6.42;78.48
36834;BME280;48003;52.084;5.224;2023-03-03T08:30:37;102784.99999999999;;;6.46;78.48
36834;BME280;48003;52.084;5.224;2023-03-03T08:33:51;102784.99999999999;;;6.49;78.36
36834;BME280;48003;52.084;5.224;2023-03-03T08:35:27;102783.0;;;6.52;78.3
36834;BME280;48003;52.084;5.224;2023-03-03T08:37:03;102781.0;;;6.57;78.25
36834;BME280;48003;52.084;5.224;2023-03-03T08:38:40;102783.0;;;6.61;78.05
36834;BME280;48003;52.084;5.224;2023-03-03T08:41:52;102780.0;;;6.65;78.17
36834;BME280;48003;52.084;5.224;2023-03-03T08:43:29;102781.0;;;6.69;77.94
36834;BME280;48003;52.084;5.224;2023-03-03T08:45:05;102783.99999999999;;;6.69;77.87
36834;BME280;48003;52.084;5.224;2023-03-03T08:48:19;102784.99999999999;;;6.72;77.81
36834;BME280;48003;52.084;5.224;2023-03-03T08:49:56;102784.99999999999;;;6.79;77.69
36834;BME280;48003;52.084;5.224;2023-03-03T08:54:45;102783.99999999999;;;6.8;77.16
36834;BME280;48003;52.084;5.224;2023-03-03T08:56:22;102782.0;;;6.86;77.12
36834;BME280;48003;52.084;5.224;2023-03-03T08:57:58;102783.99999999999;;;6.91;76.94
36834;BME280;48003;52.084;5.224;2023-03-03T08:59:34;102783.99999999999;;;7.0;76.87
36834;BME280;48003;52.084;5.224;2023-03-03T09:02:47;102783.99999999999;;;7.05;76.87
36834;BME280;48003;52.084;5.224;2023-03-03T09:04:23;102782.0;;;7.12;76.56
36834;BME280;48003;52.084;5.224;2023-03-03T09:06:00;102784.99999999999;;;7.19;76.47
36834;BME280;48003;52.084;5.224;2023-03-03T09:09:13;102783.99999999999;;;7.21;76.3
36834;BME280;48003;52.084;5.224;2023-03-03T09:10:49;102784.99999999999;;;7.31;75.83
36834;BME280;48003;52.084;5.224;2023-03-03T09:12:29;102783.99999999999;;;7.36;75.52
36834;BME280;48003;52.084;5.224;2023-03-03T09:15:46;102783.99999999999;;;7.42;75.13
36834;BME280;48003;52.084;5.224;2023-03-03T09:17:25;102783.99999999999;;;7.45;74.83
36834;BME280;48003;52.084;5.224;2023-03-03T09:19:21;102782.0;;;7.5;74.61
36834;BME280;48003;52.084;5.224;2023-03-03T09:21:00;102779.0;;;7.5;74.63
36834;BME280;48003;52.084;5.224;2023-03-03T09:22:36;102775.0;;;7.6;74.31
36834;BME280;48003;52.084;5.224;2023-03-03T09:26:17;102777.0;;;7.62;73.83
36834;BME280;48003;52.084;5.224;2023-03-03T09:28:18;102777.0;;;7.63;73.52
36834;BME280;48003;52.084;5.224;2023-03-03T09:30:00;102780.0;;;7.7;73.63
36834;BME280;48003;52.084;5.224;2023-03-03T09:31:39;102786.99999999999;;;7.72;73.37
36834;BME280;48003;52.084;5.224;2023-03-03T09:33:23;102779.0;;;7.76;73.22
36834;BME280;48003;52.084;5.224;2023-03-03T09:37:20;102779.0;;;7.76;72.87
36834;BME280;48003;52.084;5.224;2023-03-03T09:38:57;102776.0;;;7.79;73.02
36834;BME280;48003;52.084;5.224;2023-03-03T09:40:47;102783.99999999999;;;7.81;72.74
36834;BME280;48003;52.084;5.224;2023-03-03T09:42:37;102784.99999999999;;;7.76;72.69
36834;BME280;48003;52.084;5.224;2023-03-03T09:45:51;102783.99999999999;;;7.75;72.34
36834;BME280;48003;52.084;5.224;2023-03-03T09:47:54;102786.99999999999;;;7.72;72.24
36834;BME280;48003;52.084;5.224;2023-03-03T09:51:38;102790.00000000001;;;7.78;71.88
36834;BME280;48003;52.084;5.224;2023-03-03T09:53:59;102790.00000000001;;;7.85;71.77
36834;BME280;48003;52.084;5.224;2023-03-03T09:55:58;102789.00000000001;;;7.92;71.94
36834;BME280;48003;52.084;5.224;2023-03-03T09:57:50;102792.0;;;7.82;71.95
36834;BME280;48003;52.084;5.224;2023-03-03T09:59:43;102792.0;;;8.0;71.77
36834;BME280;48003;52.084;5.224;2023-03-03T10:01:39;102792.0;;;8.11;71.77
36834;BME280;48003;52.084;5.224;2023-03-03T10:05:07;102791.00000000001;;;8.15;71.78
36834;BME280;48003;52.084;5.224;2023-03-03T10:06:54;102792.0;;;8.19;70.78
36834;BME280;48003;52.084;5.224;2023-03-03T10:10:42;102791.00000000001;;;8.26;70.95
36834;BME280;48003;52.084;5.224;2023-03-03T10:13:02;102793.0;;;8.33;70.72
36834;BME280;48003;52.084;5.224;2023-03-03T10:17:21;102792.0;;;8.55;71.06
36834;BME280;48003;52.084;5.224;2023-03-03T10:20:58;102791.00000000001;;;8.63;70.78
36834;BME280;48003;52.084;5.224;2023-03-03T10:22:44;102789.00000000001;;;8.73;70.72
36834;BME280;48003;52.084;5.224;2023-03-03T10:24:27;102783.99999999999;;;8.81;69.95
36834;BME280;48003;52.084;5.224;2023-03-03T10:26:13;102788.00000000001;;;8.96;70.16
36834;BME280;48003;52.084;5.224;2023-03-03T10:28:12;102786.99999999999;;;8.97;69.67
36834;BME280;48003;52.084;5.224;2023-03-03T10:30:01;102783.0;;;9.1;69.19
36834;BME280;48003;52.084;5.224;2023-03-03T10:31:53;102782.0;;;9.17;68.8
36834;BME280;48003;52.084;5.224;2023-03-03T10:35:32;102786.99999999999;;;9.24;68.06
36834;BME280;48003;52.084;5.224;2023-03-03T10:37:18;102789.00000000001;;;9.27;67.48
36834;BME280;48003;52.084;5.224;2023-03-03T10:39:12;102784.99999999999;;;9.35;67.62
36834;BME280;48003;52.084;5.224;2023-03-03T10:41:08;102783.0;;;9.41;67.05
36834;BME280;48003;52.084;5.224;2023-03-03T10:43:00;102788.00000000001;;;9.48;66.55
36834;BME280;48003;52.084;5.224;2023-03-03T10:44:51;102789.00000000001;;;9.61;66.8
36834;BME280;48003;52.084;5.224;2023-03-03T10:46:50;102786.99999999999;;;9.68;66.72
36834;BME280;48003;52.084;5.224;2023-03-03T10:48:44;102789.00000000001;;;9.78;65.81
36834;BME280;48003;52.084;5.224;2023-03-03T10:50:33;102788.00000000001;;;9.96;65.24
36834;BME280;48003;52.084;5.224;2023-03-03T10:54:17;102791.00000000001;;;10.08;65.33
36834;BME280;48003;52.084;5.224;2023-03-03T10:56:14;102792.0;;;10.1;64.55
36834;BME280;48003;52.084;5.224;2023-03-03T10:58:22;102789.00000000001;;;10.22;64.62
36834;BME280;48003;52.084;5.224;2023-03-03T11:00:18;102791.00000000001;;;10.37;63.85
36834;BME280;48003;52.084;5.224;2023-03-03T11:02:02;102783.99999999999;;;10.4;63.26
36834;BME280;48003;52.084;5.224;2023-03-03T11:04:01;102784.99999999999;;;10.39;61.86